MDPP/POP METAR and TAF weather

Enter ICAO airport designator
Station Type Date Time Source
MDPP METAR 2024/06/14 20:00 UTC NOAA

MDPP 142000Z 09016KT 9999 FEW022 32/25 Q1011


Station Type Date Time Source
MDPP Decoded METAR 2024/06/14 20:00 UTC NOAA

Puerto Plata International, Dominican Republic (MDPP) 19-45N 070-33W
Jun 14, 2024 - 04:00 PM EDT / 2024.06.14 2000 UTC
Wind: from the E (090 degrees) at 18 MPH (16 KT):0
Visibility: greater than 7 mile(s):0
Sky conditions: mostly clear
Temperature: 89 F (32 C)
Heat index: 100.6 F (38.1 C):1
Dew Point: 77 F (25 C)
Relative Humidity: 66%
Pressure (altimeter): 29.85 in. Hg (1011 hPa)
ob: MDPP 142000Z 09016KT 9999 FEW022 32/25 Q1011
cycle: 20

Station Type Date Time Source
MDPP TAF 2024/06/14 18:00 UTC NOAA